createdAt,value
2022-08-02T00:00:12.083Z,100658.81
2022-08-02T00:02:38.833Z,100662.34
2022-08-02T00:05:06.668Z,100660.91
2022-08-02T00:07:39.014Z,100653.16
2022-08-02T00:10:10.075Z,100662.22
2022-08-02T00:12:37.071Z,100653.59
2022-08-02T00:15:04.994Z,100651.19
2022-08-02T00:17:32.101Z,100657.72
2022-08-02T00:19:58.759Z,100658.56
2022-08-02T00:22:25.401Z,100659.69
2022-08-02T00:24:52.195Z,100646.56
2022-08-02T00:27:18.961Z,100661.66
2022-08-02T00:29:53.006Z,100658.59
2022-08-02T00:32:20.958Z,100646.13
2022-08-02T00:34:48.268Z,100648.81
2022-08-02T00:37:14.944Z,100650.97
2022-08-02T00:39:45.218Z,100651.25
2022-08-02T00:42:15.299Z,100649.81
2022-08-02T00:44:42.928Z,100641.78
2022-08-02T00:47:10.008Z,100641.38
2022-08-02T00:49:37.472Z,100642.19
2022-08-02T00:52:05.101Z,100645.03
2022-08-02T00:54:31.912Z,100647.72
2022-08-02T00:56:58.650Z,100648.59
2022-08-02T00:59:25.365Z,100644.47
2022-08-02T01:01:55.984Z,100633.75
2022-08-02T01:04:29.837Z,100637.56
2022-08-02T01:07:00.193Z,100621.88
2022-08-02T01:09:27.329Z,100619.34
2022-08-02T01:11:54.048Z,100616.66
2022-08-02T01:14:23.125Z,100630.06
2022-08-02T01:17:02.281Z,100632.16
2022-08-02T01:19:48.597Z,100622.00
2022-08-02T01:22:59.611Z,100626.69
2022-08-02T01:25:45.078Z,100617.94
2022-08-02T01:28:26.965Z,100630.63
2022-08-02T01:31:16.767Z,100633.44
2022-08-02T01:33:49.173Z,100633.28
2022-08-02T01:36:18.953Z,100632.31
2022-08-02T01:38:48.939Z,100634.16
2022-08-02T01:41:19.989Z,100631.75
2022-08-02T01:43:49.672Z,100628.50
2022-08-02T01:46:19.070Z,100628.50
2022-08-02T01:48:47.773Z,100627.66
2022-08-02T01:51:17.714Z,100625.53
2022-08-02T01:53:47.559Z,100624.97
2022-08-02T01:56:16.457Z,100621.84
2022-08-02T01:58:45.445Z,100621.03
2022-08-02T02:01:16.012Z,100630.19
2022-08-02T02:03:47.635Z,100617.09
2022-08-02T02:06:16.383Z,100614.53
2022-08-02T02:08:44.363Z,100609.19
2022-08-02T02:12:06.059Z,100605.78
2022-08-02T02:14:00.846Z,100605.78
2022-08-02T02:16:29.198Z,100604.09
2022-08-02T02:18:56.222Z,100595.59
2022-08-02T02:21:23.262Z,100598.44
2022-08-02T02:23:50.712Z,100597.72
2022-08-02T02:26:29.617Z,100604.19
2022-08-02T02:29:02.105Z,100593.75
2022-08-02T02:31:32.805Z,100585.72
2022-08-02T02:34:03.315Z,100586.88
2022-08-02T02:36:33.437Z,100576.56
2022-08-02T02:39:03.499Z,100574.03
2022-08-02T02:41:30.464Z,100574.28
2022-08-02T02:44:02.378Z,100570.88
2022-08-02T02:46:34.161Z,100570.19
2022-08-02T02:49:01.290Z,100567.66
2022-08-02T02:51:29.550Z,100560.91
2022-08-02T02:54:33.347Z,100577.03
2022-08-02T02:56:44.580Z,100565.19
2022-08-02T02:59:13.849Z,100565.06
2022-08-02T03:01:57.335Z,100549.97
2022-08-02T03:04:27.067Z,100552.09
2022-08-02T03:06:54.051Z,100550.66
2022-08-02T03:09:20.918Z,100543.75
2022-08-02T03:11:48.640Z,100539.50
2022-08-02T03:14:16.028Z,100554.16
2022-08-02T03:16:45.255Z,100549.81
2022-08-02T03:19:12.372Z,100551.75
2022-08-02T03:21:39.074Z,100553.03
2022-08-02T03:24:07.323Z,100553.31
2022-08-02T03:26:34.825Z,100557.66
2022-08-02T03:29:10.059Z,100551.31
2022-08-02T03:31:41.914Z,100545.13
2022-08-02T03:34:08.789Z,100525.66
2022-08-02T03:36:36.483Z,100539.91
2022-08-02T03:39:05.455Z,100532.84
2022-08-02T03:41:33.276Z,100530.31
2022-08-02T03:44:01.725Z,100530.31
2022-08-02T03:46:29.277Z,100525.09
2022-08-02T03:48:56.981Z,100525.50
2022-08-02T03:51:24.170Z,100529.19
2022-08-02T03:53:51.107Z,100525.50
2022-08-02T03:56:18.712Z,100530.72
2022-08-02T03:58:49.274Z,100530.16
2022-08-02T04:01:17.028Z,100533.38
2022-08-02T04:03:44.202Z,100526.72
2022-08-02T04:06:11.224Z,100534.88
2022-08-02T04:08:38.988Z,100542.06
2022-08-02T04:11:25.259Z,100540.50
2022-08-02T04:13:56.488Z,100530.06
2022-08-02T04:16:31.599Z,100524.00
2022-08-02T04:19:02.400Z,100528.66
2022-08-02T04:21:48.406Z,100524.84
2022-08-02T04:24:24.493Z,100530.59
2022-08-02T04:27:19.459Z,100531.59
2022-08-02T04:29:50.023Z,100536.34
2022-08-02T04:32:18.292Z,100539.47
2022-08-02T04:35:11.269Z,100538.22
2022-08-02T04:37:33.772Z,100542.16
2022-08-02T04:40:00.869Z,100541.06
2022-08-02T04:42:27.481Z,100531.47
2022-08-02T04:44:54.446Z,100539.50
2022-08-02T04:47:40.007Z,100538.66
2022-08-02T04:50:09.364Z,100534.88
2022-08-02T04:52:36.091Z,100531.25
2022-08-02T04:55:02.807Z,100532.69
2022-08-02T04:57:52.567Z,100534.66
2022-08-02T05:00:20.416Z,100522.34
2022-08-02T05:02:47.492Z,100523.09
2022-08-02T05:05:14.878Z,100521.28
2022-08-02T05:07:41.695Z,100525.03
2022-08-02T05:10:08.677Z,100520.63
2022-08-02T05:12:35.343Z,100524.31
2022-08-02T05:15:02.074Z,100524.44
2022-08-02T05:17:28.765Z,100527.81
2022-08-02T05:19:55.505Z,100532.34
2022-08-02T05:22:22.243Z,100521.78
2022-08-02T05:24:48.977Z,100518.38
2022-08-02T05:27:16.520Z,100526.00
2022-08-02T05:29:51.230Z,100527.97
2022-08-02T05:32:20.603Z,100534.28
2022-08-02T05:34:50.506Z,100531.88
2022-08-02T05:37:17.602Z,100541.47
2022-08-02T05:39:55.760Z,100546.69
2022-08-02T05:42:23.721Z,100542.03
2022-08-02T05:44:50.814Z,100540.13
2022-08-02T05:47:17.714Z,100533.50
2022-08-02T05:49:44.476Z,100539.72
2022-08-02T05:52:17.245Z,100532.53
2022-08-02T05:54:46.597Z,100533.66
2022-08-02T05:57:43.398Z,100528.44
2022-08-02T06:00:13.869Z,100533.78
2022-08-02T06:02:43.647Z,100521.41
2022-08-02T06:05:12.867Z,100530.97
2022-08-02T06:07:44.784Z,100514.66
2022-08-02T06:10:13.750Z,100529.06
2022-08-02T06:12:51.953Z,100535.97
2022-08-02T06:15:19.540Z,100537.50
2022-08-02T06:17:47.976Z,100533.41
2022-08-02T06:20:16.296Z,100531.06
2022-08-02T06:22:44.557Z,100527.94
2022-08-02T06:25:51.028Z,100531.06
2022-08-02T06:28:02.463Z,100533.75
2022-08-02T06:30:31.729Z,100527.41
2022-08-02T06:33:00.301Z,100531.38
2022-08-02T06:35:40.363Z,100520.53
2022-08-02T06:38:10.031Z,100525.75
2022-08-02T06:41:16.945Z,100528.56
2022-08-02T06:44:13.757Z,100532.34
2022-08-02T06:47:11.701Z,100535.06
2022-08-02T06:49:52.486Z,100536.75
2022-08-02T06:52:22.290Z,100526.91
2022-08-02T06:54:52.327Z,100519.72
2022-08-02T06:57:18.991Z,100530.72
2022-08-02T06:59:45.778Z,100531.28
2022-08-02T07:02:12.890Z,100533.00
2022-08-02T07:04:39.795Z,100532.84
2022-08-02T07:07:06.537Z,100530.75
2022-08-02T07:09:33.246Z,100525.25
2022-08-02T07:12:00.025Z,100528.66
2022-08-02T07:14:26.903Z,100526.41
2022-08-02T07:16:53.680Z,100525.28
2022-08-02T07:19:20.313Z,100524.88
2022-08-02T07:21:57.744Z,100530.53
2022-08-02T07:24:27.685Z,100528.53
2022-08-02T07:27:10.478Z,100534.63
2022-08-02T07:29:46.661Z,100539.59
2022-08-02T07:32:21.389Z,100544.81
2022-08-02T07:34:51.159Z,100534.09
2022-08-02T07:37:35.942Z,100526.63
2022-08-02T07:40:15.356Z,100532.69
2022-08-02T07:42:48.661Z,100538.75
2022-08-02T07:45:15.391Z,100537.63
2022-08-02T07:47:44.028Z,100538.75
2022-08-02T07:50:12.970Z,100541.88
2022-08-02T07:52:40.757Z,100541.31
2022-08-02T07:55:09.515Z,100538.50
2022-08-02T07:57:37.003Z,100536.66
2022-08-02T08:00:06.403Z,100539.19
2022-08-02T08:02:33.055Z,100533.00
2022-08-02T08:04:59.797Z,100536.22
2022-08-02T08:07:26.541Z,100527.06
2022-08-02T08:09:56.434Z,100524.38
2022-08-02T08:12:23.534Z,100524.81
2022-08-02T08:14:50.177Z,100530.56
2022-08-02T08:17:17.360Z,100528.63
2022-08-02T08:19:52.089Z,100531.84
2022-08-02T08:22:22.972Z,100531.44
2022-08-02T08:24:50.320Z,100533.41
2022-08-02T08:27:18.519Z,100529.28
2022-08-02T08:29:45.421Z,100527.75
2022-08-02T08:32:17.617Z,100526.03
2022-08-02T08:34:48.685Z,100536.63
2022-08-02T08:37:18.288Z,100534.50
2022-08-02T08:39:56.900Z,100529.53
2022-08-02T08:42:31.039Z,100542.25
2022-08-02T08:44:59.273Z,100528.69
2022-08-02T08:47:39.039Z,100538.44
2022-08-02T08:50:22.864Z,100528.41
2022-08-02T08:53:01.228Z,100532.63
2022-08-02T08:55:30.537Z,100524.44
2022-08-02T08:57:59.244Z,100526.53
2022-08-02T09:00:27.457Z,100516.22
2022-08-02T09:02:54.106Z,100522.72
2022-08-02T09:05:20.740Z,100525.66
2022-08-02T09:07:49.276Z,100530.88
2022-08-02T09:10:45.784Z,100522.84
2022-08-02T09:13:37.651Z,100530.84
2022-08-02T09:16:13.052Z,100526.19
2022-08-02T09:18:46.152Z,100521.50
2022-08-02T09:21:15.748Z,100520.78
2022-08-02T09:23:48.198Z,100524.88
2022-08-02T09:26:17.402Z,100525.41
2022-08-02T09:28:46.903Z,100512.53
2022-08-02T09:31:16.002Z,100517.44
2022-08-02T09:33:44.554Z,100514.16
2022-08-02T09:36:16.292Z,100517.84
2022-08-02T09:38:57.921Z,100518.06
2022-08-02T09:41:45.650Z,100520.97
2022-08-02T09:44:16.139Z,100523.38
2022-08-02T09:46:46.972Z,100520.22
2022-08-02T09:49:16.735Z,100520.06
2022-08-02T09:51:47.166Z,100531.38
2022-08-02T09:54:23.328Z,100517.81
2022-08-02T09:56:52.886Z,100514.81
2022-08-02T09:59:21.701Z,100512.66
2022-08-02T10:01:51.034Z,100526.31
2022-08-02T10:04:34.315Z,100529.53
2022-08-02T10:07:04.683Z,100527.56
2022-08-02T10:09:32.504Z,100519.34
2022-08-02T10:11:59.987Z,100524.25
2022-08-02T10:14:28.095Z,100531.31
2022-08-02T10:16:58.130Z,100522.41
2022-08-02T10:20:00.192Z,100527.63
2022-08-02T10:22:14.871Z,100523.69
2022-08-02T10:24:47.633Z,100531.44
2022-08-02T10:27:20.775Z,100526.63
2022-08-02T10:29:54.956Z,100531.56
2022-08-02T10:32:39.925Z,100529.25
2022-08-02T10:35:19.969Z,100533.16
2022-08-02T10:38:04.259Z,100523.25
2022-08-02T10:40:47.259Z,100535.09
2022-08-02T10:43:36.477Z,100536.84
2022-08-02T10:46:21.640Z,100535.22
2022-08-02T10:49:38.675Z,100535.13
2022-08-02T10:52:02.782Z,100531.50
2022-08-02T10:54:33.302Z,100526.47
2022-08-02T10:57:01.320Z,100513.94
2022-08-02T10:59:37.126Z,100530.44
2022-08-02T11:02:06.190Z,100527.25
2022-08-02T11:04:42.258Z,100533.19
2022-08-02T11:07:17.374Z,100528.13
2022-08-02T11:09:51.277Z,100530.13
2022-08-02T11:12:20.096Z,100520.53
2022-08-02T11:15:04.003Z,100514.13
2022-08-02T11:17:54.432Z,100519.56
2022-08-02T11:20:23.178Z,100527.84
2022-08-02T11:22:52.771Z,100523.88
2022-08-02T11:25:22.389Z,100516.63
2022-08-02T11:27:52.360Z,100526.25
2022-08-02T11:30:20.350Z,100516.00
2022-08-02T11:32:58.677Z,100523.25
2022-08-02T11:35:36.441Z,100512.16
2022-08-02T11:38:20.704Z,100517.22
2022-08-02T11:40:49.136Z,100506.81
2022-08-02T11:43:17.887Z,100500.28
2022-08-02T11:45:44.825Z,100498.28
2022-08-02T11:48:11.520Z,100499.63
2022-08-02T11:50:38.386Z,100504.03
2022-08-02T11:53:17.752Z,100498.81
2022-08-02T11:55:44.502Z,100509.75
2022-08-02T11:58:11.802Z,100503.66
2022-08-02T12:00:38.899Z,100502.66
2022-08-02T12:03:06.693Z,100502.66
2022-08-02T12:06:02.953Z,100494.25
2022-08-02T12:08:25.402Z,100497.25
2022-08-02T12:10:53.148Z,100491.72
2022-08-02T12:13:20.118Z,100490.88
2022-08-02T12:15:47.497Z,100496.44
2022-08-02T12:18:35.059Z,100492.38
2022-08-02T12:21:02.516Z,100480.47
2022-08-02T12:23:30.189Z,100489.75
2022-08-02T12:26:03.847Z,100491.97
2022-08-02T12:28:34.847Z,100495.88
2022-08-02T12:31:02.361Z,100492.47
2022-08-02T12:33:45.792Z,100483.88
2022-08-02T12:36:39.960Z,100486.22
2022-08-02T12:39:12.387Z,100484.03
2022-08-02T12:41:39.177Z,100481.88
2022-08-02T12:44:21.579Z,100483.06
2022-08-02T12:46:59.528Z,100475.13
2022-08-02T12:49:27.328Z,100482.38
2022-08-02T12:51:57.729Z,100470.09
2022-08-02T12:54:40.251Z,100461.84
2022-08-02T12:57:14.645Z,100469.75
2022-08-02T12:59:45.216Z,100467.72
2022-08-02T13:02:14.637Z,100473.28
2022-08-02T13:04:41.814Z,100469.41
2022-08-02T13:07:17.354Z,100470.09
2022-08-02T13:09:48.307Z,100462.31
2022-08-02T13:12:15.676Z,100468.59
2022-08-02T13:14:43.242Z,100464.19
2022-08-02T13:17:10.484Z,100467.38
2022-08-02T13:19:38.565Z,100469.25
2022-08-02T13:22:05.892Z,100462.16
2022-08-02T13:24:39.621Z,100457.78
2022-08-02T13:27:09.347Z,100449.72
2022-08-02T13:29:37.078Z,100458.31
2022-08-02T13:32:04.175Z,100453.22
2022-08-02T13:34:30.948Z,100451.03
2022-08-02T13:36:57.696Z,100455.91
2022-08-02T13:39:24.546Z,100453.19
2022-08-02T13:41:51.707Z,100453.38
2022-08-02T13:44:18.373Z,100452.34
2022-08-02T13:46:46.172Z,100457.75
2022-08-02T13:49:18.495Z,100454.88
2022-08-02T13:51:49.222Z,100453.03
2022-08-02T13:54:16.501Z,100447.97
2022-08-02T13:56:43.612Z,100459.28
2022-08-02T13:59:23.643Z,100448.50
2022-08-02T14:02:09.478Z,100443.28
2022-08-02T14:04:38.843Z,100445.81
2022-08-02T14:07:05.825Z,100445.63
2022-08-02T14:09:32.661Z,100436.84
2022-08-02T14:12:00.490Z,100451.03
2022-08-02T14:14:27.284Z,100448.97
2022-08-02T14:16:54.074Z,100453.56
2022-08-02T14:19:21.975Z,100453.88
2022-08-02T14:21:49.547Z,100450.00
2022-08-02T14:24:17.430Z,100450.53
2022-08-02T14:26:45.780Z,100450.69
2022-08-02T14:29:13.079Z,100445.47
2022-08-02T14:31:43.957Z,100448.50
2022-08-02T14:34:11.418Z,100437.88
2022-08-02T14:36:39.225Z,100445.81
2022-08-02T14:39:06.150Z,100443.09
2022-08-02T14:41:54.742Z,100433.00
2022-08-02T14:44:20.896Z,100441.94
2022-08-02T14:46:47.663Z,100429.97
2022-08-02T14:49:25.121Z,100423.19
2022-08-02T14:51:53.888Z,100424.72
2022-08-02T14:54:20.857Z,100424.06
2022-08-02T14:56:56.098Z,100424.25
2022-08-02T14:59:22.931Z,100417.50
2022-08-02T15:01:49.797Z,100425.94
2022-08-02T15:04:16.770Z,100429.78
2022-08-02T15:06:43.483Z,100431.81
2022-08-02T15:09:10.129Z,100428.63
2022-08-02T15:11:47.671Z,100424.59
2022-08-02T15:14:21.895Z,100427.28
2022-08-02T15:16:58.604Z,100427.94
2022-08-02T15:19:41.589Z,100421.22
2022-08-02T15:22:16.828Z,100425.59
2022-08-02T15:24:46.431Z,100429.63
2022-08-02T15:27:14.546Z,100427.09
2022-08-02T15:29:42.957Z,100419.69
2022-08-02T15:32:10.193Z,100428.78
2022-08-02T15:34:37.218Z,100422.56
2022-08-02T15:37:04.292Z,100424.41
2022-08-02T15:39:31.329Z,100416.00
2022-08-02T15:41:58.191Z,100417.50
2022-08-02T15:44:25.306Z,100414.13
2022-08-02T15:46:53.446Z,100420.22
2022-08-02T15:49:20.983Z,100422.22
2022-08-02T15:51:47.936Z,100422.88
2022-08-02T15:54:14.595Z,100430.97
2022-08-02T15:56:41.248Z,100425.94
2022-08-02T15:59:08.269Z,100430.00
2022-08-02T16:01:37.660Z,100426.78
2022-08-02T16:04:07.218Z,100430.50
2022-08-02T16:06:34.930Z,100427.09
2022-08-02T16:09:01.841Z,100425.28
2022-08-02T16:11:28.867Z,100423.41
2022-08-02T16:13:55.800Z,100417.84
2022-08-02T16:16:24.302Z,100414.47
2022-08-02T16:18:51.413Z,100422.22
2022-08-02T16:21:19.471Z,100419.53
2022-08-02T16:24:01.539Z,100415.50
2022-08-02T16:26:34.372Z,100413.63
2022-08-02T16:29:02.295Z,100418.00
2022-08-02T16:31:29.136Z,100421.53
2022-08-02T16:33:57.074Z,100410.56
2022-08-02T16:36:25.816Z,100423.19
2022-08-02T16:38:53.981Z,100416.44
2022-08-02T16:41:21.179Z,100417.66
2022-08-02T16:43:48.136Z,100410.53
2022-08-02T16:46:15.274Z,100408.00
2022-08-02T16:48:51.096Z,100408.69
2022-08-02T16:51:19.593Z,100407.88
2022-08-02T16:53:59.983Z,100396.94
2022-08-02T16:56:30.469Z,100402.00
2022-08-02T16:58:59.607Z,100402.34
2022-08-02T17:01:27.414Z,100400.63
2022-08-02T17:03:56.925Z,100398.28
2022-08-02T17:06:26.376Z,100389.34
2022-08-02T17:08:56.384Z,100384.28
2022-08-02T17:11:23.843Z,100381.75
2022-08-02T17:13:51.929Z,100390.88
2022-08-02T17:16:20.332Z,100393.25
2022-08-02T17:18:54.206Z,100386.09
2022-08-02T17:21:20.943Z,100389.28
2022-08-02T17:24:08.414Z,100376.41
2022-08-02T17:26:36.103Z,100383.00
2022-08-02T17:29:15.888Z,100383.09
2022-08-02T17:32:05.689Z,100374.94
2022-08-02T17:34:32.267Z,100365.88
2022-08-02T17:37:00.410Z,100368.13
2022-08-02T17:39:33.817Z,100369.50
2022-08-02T17:42:02.874Z,100362.97
2022-08-02T17:44:37.100Z,100369.63
2022-08-02T17:47:11.865Z,100376.66
2022-08-02T17:52:51.673Z,100368.03
2022-08-02T17:55:14.658Z,100375.38
2022-08-02T17:57:57.740Z,100367.94
2022-08-02T18:00:32.076Z,100378.41
2022-08-02T18:03:05.711Z,100386.47
2022-08-02T18:05:55.234Z,100380.88
2022-08-02T18:08:24.110Z,100377.75
2022-08-02T18:10:52.776Z,100376.34
2022-08-02T18:13:19.792Z,100380.44
2022-08-02T18:15:46.845Z,100371.03
2022-08-02T18:18:16.885Z,100375.44
2022-08-02T18:20:46.009Z,100373.25
2022-08-02T18:23:13.419Z,100365.66
2022-08-02T18:25:46.753Z,100369.75
2022-08-02T18:28:15.757Z,100374.44
2022-08-02T18:30:43.344Z,100373.13
2022-08-02T18:33:57.395Z,100375.69
2022-08-02T18:35:57.257Z,100367.41
2022-08-02T18:38:25.049Z,100372.16
2022-08-02T18:40:53.791Z,100366.44
2022-08-02T18:43:25.624Z,100360.53
2022-08-02T18:46:05.884Z,100356.34
2022-08-02T18:48:46.172Z,100354.31
2022-08-02T18:51:14.660Z,100362.41
2022-08-02T18:53:42.916Z,100357.03
2022-08-02T18:56:19.760Z,100357.19
2022-08-02T18:58:50.915Z,100353.16
2022-08-02T19:01:32.432Z,100357.69
2022-08-02T19:04:03.077Z,100351.97
2022-08-02T19:06:30.435Z,100356.84
2022-08-02T19:09:05.760Z,100353.50
2022-08-02T19:11:41.438Z,100341.19
2022-08-02T19:14:24.106Z,100351.81
2022-08-02T19:16:59.622Z,100348.28
2022-08-02T19:19:28.983Z,100349.63
2022-08-02T19:22:26.522Z,100360.03
2022-08-02T19:24:44.493Z,100355.66
2022-08-02T19:27:14.837Z,100363.91
2022-08-02T19:29:50.881Z,100353.66
2022-08-02T19:32:41.213Z,100359.53
2022-08-02T19:37:55.909Z,100362.06
2022-08-02T19:40:29.050Z,100357.00
2022-08-02T19:45:51.155Z,100368.13
2022-08-02T19:48:23.519Z,100366.59
2022-08-02T19:50:55.856Z,100361.03
2022-08-02T19:53:29.174Z,100354.13
2022-08-02T19:56:11.597Z,100362.69
2022-08-02T19:58:39.805Z,100364.38
2022-08-02T20:01:14.130Z,100367.75
2022-08-02T20:03:52.193Z,100371.09
2022-08-02T20:06:28.514Z,100370.75
2022-08-02T20:08:59.212Z,100367.16
2022-08-02T20:11:28.046Z,100363.28
2022-08-02T20:13:54.870Z,100371.84
2022-08-02T20:16:28.379Z,100370.47
2022-08-02T20:19:00.408Z,100366.56
2022-08-02T20:21:36.244Z,100364.22
2022-08-02T20:24:06.049Z,100367.56
2022-08-02T20:26:32.906Z,100374.78
2022-08-02T20:29:03.062Z,100374.13
2022-08-02T20:31:30.541Z,100366.03
2022-08-02T20:36:25.445Z,100368.38
2022-08-02T20:38:52.048Z,100375.38
2022-08-02T20:41:37.299Z,100367.97
2022-08-02T20:44:30.130Z,100378.06
2022-08-02T20:46:59.274Z,100377.53
2022-08-02T20:49:41.262Z,100381.06
2022-08-02T20:52:23.215Z,100377.16
2022-08-02T20:54:57.358Z,100387.25
2022-08-02T20:57:36.119Z,100372.59
2022-08-02T21:00:18.536Z,100376.03
2022-08-02T21:03:07.450Z,100377.69
2022-08-02T21:05:54.639Z,100377.13
2022-08-02T21:08:24.107Z,100378.63
2022-08-02T21:10:57.412Z,100377.34
2022-08-02T21:13:26.005Z,100382.94
2022-08-02T21:15:55.204Z,100394.69
2022-08-02T21:18:40.194Z,100393.16
2022-08-02T21:21:08.780Z,100399.16
2022-08-02T21:23:48.677Z,100402.63
2022-08-02T21:26:19.694Z,100399.72
2022-08-02T21:29:00.975Z,100386.59
2022-08-02T21:31:33.338Z,100392.97
2022-08-02T21:34:22.499Z,100383.81
2022-08-02T21:36:54.942Z,100389.19
2022-08-02T21:39:28.554Z,100381.44
2022-08-02T21:41:55.308Z,100382.78
2022-08-02T21:44:22.887Z,100377.84
2022-08-02T21:46:59.834Z,100379.00
2022-08-02T21:50:09.491Z,100383.53
2022-08-02T21:52:20.657Z,100379.44
2022-08-02T21:54:55.703Z,100383.59
2022-08-02T21:57:34.850Z,100383.34
2022-08-02T22:00:02.189Z,100385.13
2022-08-02T22:02:48.643Z,100384.53
2022-08-02T22:05:18.605Z,100388.56
2022-08-02T22:07:45.583Z,100393.19
2022-08-02T22:10:19.956Z,100389.16
2022-08-02T22:12:46.839Z,100379.84
2022-08-02T22:15:14.415Z,100375.81
2022-08-02T22:17:52.954Z,100375.66
2022-08-02T22:20:26.539Z,100367.19
2022-08-02T22:23:02.772Z,100381.63
2022-08-02T22:25:36.478Z,100379.22
2022-08-02T22:28:38.461Z,100373.16
2022-08-02T22:31:00.173Z,100370.91
2022-08-02T22:34:00.085Z,100375.59
2022-08-02T22:36:32.129Z,100371.66
2022-08-02T22:39:19.035Z,100384.09
2022-08-02T22:42:05.638Z,100378.50
2022-08-02T22:44:39.738Z,100380.03
2022-08-02T22:47:14.515Z,100368.06
2022-08-02T22:49:54.292Z,100373.72
2022-08-02T22:52:23.111Z,100364.97
2022-08-02T22:54:56.774Z,100373.16
2022-08-02T22:57:30.160Z,100374.03
2022-08-02T22:58:50.850Z,100375.38
2022-08-02T22:58:52.376Z,100367.78
2022-08-02T22:59:05.857Z,100361.72
2022-08-02T23:00:08.095Z,100373.31
2022-08-02T23:02:54.781Z,100374.63
2022-08-02T23:05:28.898Z,100380.13
2022-08-02T23:07:56.119Z,100379.41
2022-08-02T23:10:29.880Z,100370.13
2022-08-02T23:12:59.203Z,100376.31
2022-08-02T23:15:26.422Z,100372.38
2022-08-02T23:18:18.888Z,100372.13
2022-08-02T23:20:45.537Z,100371.28
2022-08-02T23:23:12.111Z,100374.97
2022-08-02T23:25:45.958Z,100372.56
2022-08-02T23:28:12.651Z,100375.69
2022-08-02T23:30:39.250Z,100372.31
2022-08-02T23:33:13.005Z,100375.13
2022-08-02T23:35:39.674Z,100372.88
2022-08-02T23:38:06.348Z,100381.22
2022-08-02T23:40:41.231Z,100371.47
2022-08-02T23:43:14.095Z,100373.59
2022-08-02T23:45:48.063Z,100376.44
2022-08-02T23:48:14.847Z,100380.38
2022-08-02T23:50:41.449Z,100374.88
2022-08-02T23:53:15.017Z,100377.84
2022-08-02T23:55:41.638Z,100376.31
2022-08-02T23:58:08.392Z,100384.34
